createdAt,value
2022-11-09T00:00:21.000Z,3.6
2022-11-09T00:03:54.000Z,3.3
2022-11-09T00:07:26.000Z,3.8
2022-11-09T00:10:18.000Z,3.6
2022-11-09T00:13:50.000Z,3.6
2022-11-09T00:17:23.000Z,4.2
2022-11-09T00:20:55.000Z,3.8
2022-11-09T00:24:28.000Z,3.9
2022-11-09T00:28:00.000Z,3.1
2022-11-09T00:31:33.000Z,3.4
2022-11-09T00:35:06.000Z,3.5
2022-11-09T00:38:38.000Z,3.3
2022-11-09T00:42:11.000Z,2.9
2022-11-09T00:45:44.000Z,2.9
2022-11-09T00:48:35.000Z,2.7
2022-11-09T00:52:07.000Z,3.1
2022-11-09T00:55:40.000Z,3
2022-11-09T00:59:13.000Z,3
2022-11-09T01:02:45.000Z,3.1
2022-11-09T01:06:18.000Z,3.3
2022-11-09T01:09:51.000Z,3.3
2022-11-09T01:13:23.000Z,3.3
2022-11-09T01:16:56.000Z,3
2022-11-09T01:20:28.000Z,2.9
2022-11-09T01:24:01.000Z,3.6
2022-11-09T01:26:52.000Z,2.8
2022-11-09T01:30:25.000Z,3.3
2022-11-09T01:33:57.000Z,3.6
2022-11-09T01:37:30.000Z,3.4
2022-11-09T01:41:03.000Z,3.5
2022-11-09T01:44:35.000Z,3.3
2022-11-09T01:48:08.000Z,3.4
2022-11-09T01:51:40.000Z,3.5
2022-11-09T01:55:13.000Z,3.6
2022-11-09T01:58:46.000Z,3.8
2022-11-09T02:02:18.000Z,4
2022-11-09T02:05:10.000Z,4
2022-11-09T02:08:42.000Z,3.7
2022-11-09T02:12:15.000Z,4.4
2022-11-09T02:15:48.000Z,4
2022-11-09T02:19:20.000Z,4.1
2022-11-09T02:22:53.000Z,4.1
2022-11-09T02:26:25.000Z,4.3
2022-11-09T02:29:58.000Z,4.8
2022-11-09T02:33:31.000Z,4.9
2022-11-09T02:37:03.000Z,5
2022-11-09T02:40:36.000Z,4.8
2022-11-09T02:43:27.000Z,4.9
2022-11-09T02:47:00.000Z,4.9
2022-11-09T02:50:33.000Z,4.9
2022-11-09T02:54:05.000Z,4.8
2022-11-09T02:57:38.000Z,5.4
2022-11-09T03:01:11.000Z,4.4
2022-11-09T03:04:43.000Z,4.4
2022-11-09T03:08:16.000Z,4
2022-11-09T03:11:49.000Z,4.6
2022-11-09T03:15:21.000Z,3.6
2022-11-09T03:18:54.000Z,4.5
2022-11-09T03:21:45.000Z,4.3
2022-11-09T03:25:18.000Z,4.3
2022-11-09T03:28:51.000Z,4.2
2022-11-09T03:32:23.000Z,3.8
2022-11-09T03:35:56.000Z,4
2022-11-09T03:39:29.000Z,3.5
2022-11-09T03:43:01.000Z,3.4
2022-11-09T03:46:34.000Z,3.1
2022-11-09T03:50:07.000Z,3.3
2022-11-09T03:53:39.000Z,2.6
2022-11-09T03:57:12.000Z,2.5
2022-11-09T04:00:03.000Z,2.8
2022-11-09T04:03:36.000Z,2.8
2022-11-09T04:07:08.000Z,2.7
2022-11-09T04:10:48.000Z,2.9
2022-11-09T04:14:21.000Z,2.8
2022-11-09T04:17:53.000Z,2.9
2022-11-09T04:21:26.000Z,2.9
2022-11-09T04:24:58.000Z,2.4
2022-11-09T04:28:31.000Z,2.4
2022-11-09T04:32:04.000Z,2.6
2022-11-09T04:35:36.000Z,3
2022-11-09T04:38:28.000Z,3.5
2022-11-09T04:42:00.000Z,3.2
2022-11-09T04:45:33.000Z,3.9
2022-11-09T04:49:05.000Z,3.9
2022-11-09T04:52:38.000Z,4.1
2022-11-09T04:56:11.000Z,3.8
2022-11-09T04:59:43.000Z,4
2022-11-09T05:03:16.000Z,3.7
2022-11-09T05:06:49.000Z,4
2022-11-09T05:10:21.000Z,4.1
2022-11-09T05:13:54.000Z,3.8
2022-11-09T05:16:45.000Z,3.9
2022-11-09T05:20:18.000Z,3.5
2022-11-09T05:23:50.000Z,3.9
2022-11-09T05:27:23.000Z,3.2
2022-11-09T05:30:56.000Z,2.9
2022-11-09T05:34:28.000Z,3
2022-11-09T05:38:01.000Z,2.4
2022-11-09T05:41:33.000Z,2.4
2022-11-09T05:45:06.000Z,2.5
2022-11-09T05:49:08.000Z,2.5
2022-11-09T05:52:40.000Z,2.2
2022-11-09T05:55:31.000Z,2.1
2022-11-09T05:59:04.000Z,2.3
2022-11-09T06:02:36.000Z,2.2
2022-11-09T06:06:09.000Z,2
2022-11-09T06:09:42.000Z,1.9
2022-11-09T06:13:22.000Z,2.1
2022-11-09T06:16:55.000Z,1.9
2022-11-09T06:20:28.000Z,2
2022-11-09T06:24:00.000Z,2
2022-11-09T06:27:33.000Z,2.2
2022-11-09T06:31:06.000Z,2.1
2022-11-09T06:33:57.000Z,1.7
2022-11-09T06:37:30.000Z,1.6
2022-11-09T06:41:02.000Z,1.8
2022-11-09T06:44:35.000Z,1.8
2022-11-09T06:48:07.000Z,1.8
2022-11-09T06:51:40.000Z,1.6
2022-11-09T06:55:12.000Z,1.7
2022-11-09T06:58:45.000Z,1.7
2022-11-09T07:02:18.000Z,1.7
2022-11-09T07:05:50.000Z,1.6
2022-11-09T07:09:27.000Z,1.4
2022-11-09T07:12:18.000Z,1.6
2022-11-09T07:15:56.000Z,1.5
2022-11-09T07:19:28.000Z,1.5
2022-11-09T07:23:01.000Z,1.6
2022-11-09T07:26:33.000Z,1.7
2022-11-09T07:30:06.000Z,2.2
2022-11-09T07:33:39.000Z,1.9
2022-11-09T07:37:11.000Z,1.7
2022-11-09T07:40:44.000Z,1.8
2022-11-09T07:44:17.000Z,2
2022-11-09T07:47:49.000Z,1.9
2022-11-09T07:50:41.000Z,2
2022-11-09T07:54:13.000Z,2.2
2022-11-09T07:57:46.000Z,2
2022-11-09T08:01:18.000Z,2.2
2022-11-09T08:04:51.000Z,2.1
2022-11-09T08:08:24.000Z,2.3
2022-11-09T08:11:56.000Z,2
2022-11-09T08:15:29.000Z,2.6
2022-11-09T08:19:02.000Z,1.9
2022-11-09T08:22:34.000Z,1.9
2022-11-09T08:26:07.000Z,2.2
2022-11-09T08:28:58.000Z,1.9
2022-11-09T08:32:31.000Z,1.8
2022-11-09T08:36:04.000Z,1.9
2022-11-09T08:39:36.000Z,1.9
2022-11-09T08:43:12.000Z,1.8
2022-11-09T08:46:45.000Z,2.1
2022-11-09T08:50:18.000Z,2.2
2022-11-09T08:53:50.000Z,2
2022-11-09T08:57:23.000Z,2
2022-11-09T09:00:56.000Z,2.2
2022-11-09T09:04:28.000Z,1.8
2022-11-09T09:07:19.000Z,1.7
2022-11-09T09:10:52.000Z,1.7
2022-11-09T09:14:25.000Z,1.7
2022-11-09T09:17:58.000Z,1.9
2022-11-09T09:21:30.000Z,1.8
2022-11-09T09:25:03.000Z,1.6
2022-11-09T09:28:36.000Z,3
2022-11-09T09:32:08.000Z,1.7
2022-11-09T09:35:41.000Z,1.4
2022-11-09T09:39:14.000Z,1.3
2022-11-09T09:42:47.000Z,1.5
2022-11-09T09:45:38.000Z,1.2
2022-11-09T09:49:10.000Z,1.6
2022-11-09T09:52:43.000Z,1.3
2022-11-09T09:56:50.000Z,1.4
2022-11-09T10:00:23.000Z,1.2
2022-11-09T10:03:55.000Z,1.4
2022-11-09T10:07:28.000Z,1.2
2022-11-09T10:11:01.000Z,1.2
2022-11-09T10:14:33.000Z,1.1
2022-11-09T10:18:06.000Z,1.2
2022-11-09T10:21:39.000Z,1.1
2022-11-09T10:24:30.000Z,1.1
2022-11-09T10:28:18.000Z,1.4
2022-11-09T10:31:51.000Z,1.1
2022-11-09T10:35:23.000Z,1.4
2022-11-09T10:38:56.000Z,1.5
2022-11-09T10:42:29.000Z,1.5
2022-11-09T10:46:01.000Z,1.2
2022-11-09T10:49:34.000Z,1.5
2022-11-09T10:53:07.000Z,1.1
2022-11-09T10:56:40.000Z,1
2022-11-09T11:00:30.000Z,1.5
2022-11-09T11:03:22.000Z,1.6
2022-11-09T11:06:54.000Z,1
2022-11-09T11:10:27.000Z,1.5
2022-11-09T11:14:00.000Z,1.1
2022-11-09T11:17:32.000Z,1
2022-11-09T11:21:05.000Z,1.7
2022-11-09T11:24:43.000Z,1.5
2022-11-09T11:28:16.000Z,1.3
2022-11-09T11:31:48.000Z,1.2
2022-11-09T11:35:22.000Z,1.1
2022-11-09T11:38:55.000Z,1.2
2022-11-09T11:41:46.000Z,1.1
2022-11-09T11:45:19.000Z,1.6
2022-11-09T11:49:06.000Z,1.5
2022-11-09T11:52:38.000Z,1.5
2022-11-09T11:56:11.000Z,2.2
2022-11-09T11:59:44.000Z,1.3
2022-11-09T12:03:16.000Z,2
2022-11-09T12:06:49.000Z,2.4
2022-11-09T12:10:22.000Z,1.9
2022-11-09T12:13:55.000Z,2.5
2022-11-09T12:17:27.000Z,2.1
2022-11-09T12:20:19.000Z,1.4
2022-11-09T12:23:51.000Z,2
2022-11-09T12:27:24.000Z,1.5
2022-11-09T12:30:58.000Z,2.6
2022-11-09T12:34:31.000Z,1.7
2022-11-09T12:38:04.000Z,1.7
2022-11-09T12:41:36.000Z,1.3
2022-11-09T12:45:09.000Z,1.4
2022-11-09T12:48:41.000Z,1.6
2022-11-09T12:52:14.000Z,1.9
2022-11-09T12:55:46.000Z,1.7
2022-11-09T12:58:38.000Z,1.4
2022-11-09T13:02:10.000Z,1.6
2022-11-09T13:05:43.000Z,1.5
2022-11-09T13:09:16.000Z,1.7
2022-11-09T13:12:48.000Z,2.1
2022-11-09T13:16:21.000Z,1.7
2022-11-09T13:19:54.000Z,1.7
2022-11-09T13:23:26.000Z,1.5
2022-11-09T13:27:25.000Z,1.4
2022-11-09T13:30:58.000Z,1.3
2022-11-09T13:34:30.000Z,4.8
2022-11-09T13:37:22.000Z,3.3
2022-11-09T13:40:54.000Z,1.1
2022-11-09T13:44:27.000Z,1.6
2022-11-09T13:48:04.000Z,1.3
2022-11-09T13:51:37.000Z,1.5
2022-11-09T13:55:09.000Z,1.5
2022-11-09T13:58:42.000Z,1.6
2022-11-09T14:02:15.000Z,1.4
2022-11-09T14:05:47.000Z,1.7
2022-11-09T14:09:20.000Z,1.6
2022-11-09T14:12:53.000Z,2.1
2022-11-09T14:15:44.000Z,2
2022-11-09T14:19:16.000Z,4.4
2022-11-09T14:22:49.000Z,1.9
2022-11-09T14:26:22.000Z,59.7
2022-11-09T14:29:54.000Z,2.7
2022-11-09T14:33:27.000Z,1.8
2022-11-09T14:36:59.000Z,999.9
2022-11-09T14:40:32.000Z,999.9
2022-11-09T14:44:05.000Z,999.9
2022-11-09T14:47:37.000Z,4.6
2022-11-09T14:51:10.000Z,999.9
2022-11-09T14:54:01.000Z,999.9
2022-11-09T14:57:34.000Z,602.2
2022-11-09T15:01:06.000Z,19.8
2022-11-09T15:04:39.000Z,19.7
2022-11-09T15:08:11.000Z,1.8
2022-11-09T15:11:45.000Z,4.3
2022-11-09T15:15:17.000Z,1.9
2022-11-09T15:18:50.000Z,2.1
2022-11-09T15:22:23.000Z,1.7
2022-11-09T15:25:55.000Z,2
2022-11-09T15:29:28.000Z,4
2022-11-09T15:32:19.000Z,2
2022-11-09T15:35:52.000Z,1.9
2022-11-09T15:39:24.000Z,2.1
2022-11-09T15:42:57.000Z,3.4
2022-11-09T15:46:30.000Z,2.3
2022-11-09T15:50:02.000Z,2.2
2022-11-09T15:53:35.000Z,2.2
2022-11-09T15:57:08.000Z,2
2022-11-09T16:00:40.000Z,1.9
2022-11-09T16:04:13.000Z,2.2
2022-11-09T16:07:46.000Z,1.9
2022-11-09T16:10:37.000Z,1.9
2022-11-09T16:14:10.000Z,1.9
2022-11-09T16:17:42.000Z,1.9
2022-11-09T16:21:15.000Z,1.8
2022-11-09T16:24:48.000Z,2
2022-11-09T16:28:20.000Z,2.1
2022-11-09T16:31:53.000Z,2.2
2022-11-09T16:35:25.000Z,6.9
2022-11-09T16:38:58.000Z,1.9
2022-11-09T16:42:31.000Z,2
2022-11-09T16:46:03.000Z,1.9
2022-11-09T16:48:55.000Z,1.9
2022-11-09T16:52:27.000Z,1.9
2022-11-09T16:56:00.000Z,2.2
2022-11-09T16:59:32.000Z,1.6
2022-11-09T17:03:12.000Z,1.8
2022-11-09T17:06:44.000Z,1.7
2022-11-09T17:10:17.000Z,1.8
2022-11-09T17:13:50.000Z,2.4
2022-11-09T17:17:23.000Z,1.7
2022-11-09T17:20:55.000Z,2.7
2022-11-09T17:24:28.000Z,2
2022-11-09T17:27:19.000Z,1.9
2022-11-09T17:30:52.000Z,2.3
2022-11-09T17:34:25.000Z,1.9
2022-11-09T17:37:57.000Z,1.9
2022-11-09T17:41:30.000Z,2.8
2022-11-09T17:45:08.000Z,2.4
2022-11-09T17:48:40.000Z,2.8
2022-11-09T17:52:13.000Z,2.2
2022-11-09T17:55:46.000Z,2.1
2022-11-09T17:59:19.000Z,1.9
2022-11-09T18:02:51.000Z,2.4
2022-11-09T18:05:42.000Z,2
2022-11-09T18:09:15.000Z,1.7
2022-11-09T18:13:06.000Z,2.7
2022-11-09T18:16:39.000Z,2
2022-11-09T18:20:11.000Z,2
2022-11-09T18:23:44.000Z,2.5
2022-11-09T18:27:17.000Z,4.4
2022-11-09T18:30:55.000Z,18
2022-11-09T18:34:28.000Z,8.2
2022-11-09T18:38:00.000Z,4.2
2022-11-09T18:41:38.000Z,3.6
2022-11-09T18:44:29.000Z,3.1
2022-11-09T18:48:02.000Z,4.1
2022-11-09T18:51:34.000Z,4
2022-11-09T18:55:07.000Z,4.7
2022-11-09T18:58:40.000Z,2.6
2022-11-09T19:02:12.000Z,2.5
2022-11-09T19:05:45.000Z,3
2022-11-09T19:09:18.000Z,5.3
2022-11-09T19:12:50.000Z,3.1
2022-11-09T19:16:23.000Z,2.7
2022-11-09T19:19:56.000Z,4.2
2022-11-09T19:22:47.000Z,4.9
2022-11-09T19:26:20.000Z,6.4
2022-11-09T19:29:52.000Z,5.8
2022-11-09T19:33:30.000Z,2.8
2022-11-09T19:37:02.000Z,2.9
2022-11-09T19:40:35.000Z,3.7
2022-11-09T19:44:07.000Z,4.9
2022-11-09T19:47:40.000Z,9
2022-11-09T19:51:12.000Z,6.3
2022-11-09T19:54:45.000Z,3.9
2022-11-09T19:58:18.000Z,2.4
2022-11-09T20:01:09.000Z,2.5
2022-11-09T20:04:41.000Z,2.4
2022-11-09T20:08:14.000Z,2.3
2022-11-09T20:11:47.000Z,44.6
2022-11-09T20:15:20.000Z,64.2
2022-11-09T20:18:53.000Z,2.1
2022-11-09T20:22:26.000Z,2.1
2022-11-09T20:25:58.000Z,2.2
2022-11-09T20:29:31.000Z,3
2022-11-09T20:33:03.000Z,2.1
2022-11-09T20:36:36.000Z,2.6
2022-11-09T20:39:27.000Z,2.4
2022-11-09T20:43:00.000Z,2.3
2022-11-09T20:46:32.000Z,2.2
2022-11-09T20:50:29.000Z,2.5
2022-11-09T20:54:02.000Z,2.3
2022-11-09T20:57:35.000Z,2.4
2022-11-09T21:01:08.000Z,2.5
2022-11-09T21:04:40.000Z,2.4
2022-11-09T21:08:13.000Z,3.2
2022-11-09T21:11:46.000Z,2.8
2022-11-09T21:15:19.000Z,2.6
2022-11-09T21:18:10.000Z,2.6
2022-11-09T21:21:43.000Z,2.5
2022-11-09T21:25:15.000Z,2.6
2022-11-09T21:28:48.000Z,2.5
2022-11-09T21:32:21.000Z,2.3
2022-11-09T21:35:53.000Z,2.2
2022-11-09T21:39:26.000Z,2.2
2022-11-09T21:43:06.000Z,3.4
2022-11-09T21:46:38.000Z,4.2
2022-11-09T21:50:11.000Z,3.6
2022-11-09T21:53:44.000Z,3.5
2022-11-09T21:56:35.000Z,3.1
2022-11-09T22:00:07.000Z,3.9
2022-11-09T22:03:40.000Z,3.4
2022-11-09T22:07:20.000Z,4
2022-11-09T22:10:53.000Z,3.4
2022-11-09T22:14:25.000Z,2.7
2022-11-09T22:17:58.000Z,3.6
2022-11-09T22:21:30.000Z,4.8
2022-11-09T22:25:03.000Z,3.8
2022-11-09T22:28:36.000Z,3.1
2022-11-09T22:32:09.000Z,3.2
2022-11-09T22:35:00.000Z,3.2
2022-11-09T22:38:33.000Z,5.4
2022-11-09T22:42:05.000Z,3.4
2022-11-09T22:45:38.000Z,6.1
2022-11-09T22:49:10.000Z,7.8
2022-11-09T22:52:43.000Z,3.9
2022-11-09T22:56:19.000Z,4
2022-11-09T22:59:52.000Z,3.1
2022-11-09T23:03:24.000Z,3.1
2022-11-09T23:06:57.000Z,3.2
2022-11-09T23:10:36.000Z,3.7
2022-11-09T23:13:27.000Z,3.6
2022-11-09T23:16:59.000Z,3.6
2022-11-09T23:20:32.000Z,2.8
2022-11-09T23:24:05.000Z,2.6
2022-11-09T23:27:37.000Z,2.3
2022-11-09T23:31:10.000Z,2.7
2022-11-09T23:34:42.000Z,2.6
2022-11-09T23:38:15.000Z,2.5
2022-11-09T23:41:48.000Z,2.7
2022-11-09T23:45:21.000Z,2.5
2022-11-09T23:48:54.000Z,2.6
2022-11-09T23:51:45.000Z,2.6
2022-11-09T23:55:18.000Z,2.2
2022-11-09T23:58:51.000Z,2.3
